YXKE weather

CLOSED Kempsey Hospital Helicopter Landing Site
Kempsey, New South Wales, Australia

Public forecast

Using degrees Celsius for public forecast. Weather courtesy of forecast.io.

METAR (pilot weather report)

Closest report is Port Macquarie Airport, 22.2 nm (41.2 km) S. Retrieved 2019/04/19 13:13 UTC (41 minutes ago):

YPMQ 191313Z AUTO 26003KT 9999 // SCT018 BKN026 BKN032 19/19 Q1026

TAF (pilot weather forecast)

Closest forecast is Taree Airport, 51.8 nm (95.9 km) SSW. Retrieved 2019/04/19 14:33 UTC (0 seconds ago):

TAF YTRE 191307Z 1914/2002 30003KT 9999 -SHRA SCT025 FM200100 07005KT 9999 -SHRA SCT030 INTER 1914/2002 3000 SHRA BKN015 PROB30 1914/1922 0500 FG BKN001